sensor_id;sensor_type;location;lat;lon;timestamp;P1;durP1;ratioP1;P2;durP2;ratioP2
13855;SDS011;6998;53.608;9.958;2023-07-20T00:01:38;2.22;;;1.70;;
13855;SDS011;6998;53.608;9.958;2023-07-20T00:04:09;1.92;;;1.60;;
13855;SDS011;6998;53.608;9.958;2023-07-20T00:06:36;2.92;;;2.05;;
13855;SDS011;6998;53.608;9.958;2023-07-20T00:09:05;2.97;;;1.80;;
13855;SDS011;6998;53.608;9.958;2023-07-20T00:11:35;2.97;;;1.80;;
13855;SDS011;6998;53.608;9.958;2023-07-20T00:14:02;2.70;;;1.70;;
13855;SDS011;6998;53.608;9.958;2023-07-20T00:16:30;2.35;;;1.85;;
13855;SDS011;6998;53.608;9.958;2023-07-20T00:18:57;3.65;;;2.03;;
13855;SDS011;6998;53.608;9.958;2023-07-20T00:21:24;2.00;;;1.77;;
13855;SDS011;6998;53.608;9.958;2023-07-20T00:23:51;1.90;;;1.60;;
13855;SDS011;6998;53.608;9.958;2023-07-20T00:26:17;3.05;;;1.98;;
13855;SDS011;6998;53.608;9.958;2023-07-20T00:28:44;2.92;;;2.00;;
13855;SDS011;6998;53.608;9.958;2023-07-20T00:31:11;3.17;;;1.98;;
13855;SDS011;6998;53.608;9.958;2023-07-20T00:33:39;2.50;;;1.80;;
13855;SDS011;6998;53.608;9.958;2023-07-20T00:36:06;2.45;;;1.60;;
13855;SDS011;6998;53.608;9.958;2023-07-20T00:38:32;2.20;;;1.60;;
13855;SDS011;6998;53.608;9.958;2023-07-20T00:40:59;2.28;;;1.80;;
13855;SDS011;6998;53.608;9.958;2023-07-20T00:43:26;2.85;;;1.70;;
13855;SDS011;6998;53.608;9.958;2023-07-20T00:45:52;3.47;;;2.25;;
13855;SDS011;6998;53.608;9.958;2023-07-20T00:48:19;3.40;;;2.55;;
13855;SDS011;6998;53.608;9.958;2023-07-20T00:50:47;4.20;;;2.30;;
13855;SDS011;6998;53.608;9.958;2023-07-20T00:53:14;5.10;;;2.30;;
13855;SDS011;6998;53.608;9.958;2023-07-20T00:55:41;3.15;;;1.90;;
13855;SDS011;6998;53.608;9.958;2023-07-20T00:58:08;5.47;;;2.42;;
13855;SDS011;6998;53.608;9.958;2023-07-20T01:00:35;2.72;;;2.30;;
13855;SDS011;6998;53.608;9.958;2023-07-20T01:03:01;4.10;;;2.22;;
13855;SDS011;6998;53.608;9.958;2023-07-20T01:05:31;3.13;;;2.50;;
13855;SDS011;6998;53.608;9.958;2023-07-20T01:08:06;3.83;;;2.42;;
13855;SDS011;6998;53.608;9.958;2023-07-20T01:10:39;2.90;;;2.30;;
13855;SDS011;6998;53.608;9.958;2023-07-20T01:13:07;3.28;;;2.60;;
13855;SDS011;6998;53.608;9.958;2023-07-20T01:15:36;4.45;;;2.63;;
13855;SDS011;6998;53.608;9.958;2023-07-20T01:18:03;3.00;;;2.67;;
13855;SDS011;6998;53.608;9.958;2023-07-20T01:20:30;4.18;;;2.55;;
13855;SDS011;6998;53.608;9.958;2023-07-20T01:23:11;3.90;;;2.90;;
13855;SDS011;6998;53.608;9.958;2023-07-20T01:26:07;4.57;;;3.17;;
13855;SDS011;6998;53.608;9.958;2023-07-20T01:28:48;3.33;;;3.03;;
13855;SDS011;6998;53.608;9.958;2023-07-20T01:31:30;4.22;;;3.13;;
13855;SDS011;6998;53.608;9.958;2023-07-20T01:34:00;3.55;;;3.25;;
13855;SDS011;6998;53.608;9.958;2023-07-20T01:36:29;4.20;;;3.33;;
13855;SDS011;6998;53.608;9.958;2023-07-20T01:38:59;4.20;;;3.15;;
13855;SDS011;6998;53.608;9.958;2023-07-20T01:41:26;5.80;;;3.08;;
13855;SDS011;6998;53.608;9.958;2023-07-20T01:43:53;4.50;;;3.38;;
13855;SDS011;6998;53.608;9.958;2023-07-20T01:46:24;3.35;;;3.05;;
13855;SDS011;6998;53.608;9.958;2023-07-20T01:48:52;4.95;;;3.10;;
13855;SDS011;6998;53.608;9.958;2023-07-20T01:51:19;3.85;;;2.85;;
13855;SDS011;6998;53.608;9.958;2023-07-20T01:53:46;4.10;;;2.90;;
13855;SDS011;6998;53.608;9.958;2023-07-20T01:56:12;3.25;;;2.95;;
13855;SDS011;6998;53.608;9.958;2023-07-20T01:58:39;4.13;;;3.10;;
13855;SDS011;6998;53.608;9.958;2023-07-20T02:01:06;3.63;;;3.17;;
13855;SDS011;6998;53.608;9.958;2023-07-20T02:03:32;4.38;;;3.40;;
13855;SDS011;6998;53.608;9.958;2023-07-20T02:06:00;4.70;;;3.42;;
13855;SDS011;6998;53.608;9.958;2023-07-20T02:08:27;3.65;;;3.25;;
13855;SDS011;6998;53.608;9.958;2023-07-20T02:10:54;3.22;;;2.92;;
13855;SDS011;6998;53.608;9.958;2023-07-20T02:13:20;4.88;;;2.90;;
13855;SDS011;6998;53.608;9.958;2023-07-20T02:15:47;4.78;;;2.80;;
13855;SDS011;6998;53.608;9.958;2023-07-20T02:18:14;2.90;;;2.70;;
13855;SDS011;6998;53.608;9.958;2023-07-20T02:20:41;4.00;;;2.90;;
13855;SDS011;6998;53.608;9.958;2023-07-20T02:23:09;3.10;;;2.80;;
13855;SDS011;6998;53.608;9.958;2023-07-20T02:25:36;2.90;;;2.60;;
13855;SDS011;6998;53.608;9.958;2023-07-20T02:28:03;3.05;;;2.75;;
13855;SDS011;6998;53.608;9.958;2023-07-20T02:30:30;4.57;;;2.90;;
13855;SDS011;6998;53.608;9.958;2023-07-20T02:32:57;3.15;;;2.75;;
13855;SDS011;6998;53.608;9.958;2023-07-20T02:35:24;3.42;;;2.53;;
13855;SDS011;6998;53.608;9.958;2023-07-20T02:37:51;2.70;;;2.20;;
13855;SDS011;6998;53.608;9.958;2023-07-20T02:40:20;2.67;;;2.20;;
13855;SDS011;6998;53.608;9.958;2023-07-20T02:42:46;2.90;;;2.70;;
13855;SDS011;6998;53.608;9.958;2023-07-20T02:45:13;2.80;;;2.22;;
13855;SDS011;6998;53.608;9.958;2023-07-20T02:47:40;2.30;;;2.10;;
13855;SDS011;6998;53.608;9.958;2023-07-20T02:50:07;2.72;;;2.45;;
13855;SDS011;6998;53.608;9.958;2023-07-20T02:52:34;3.30;;;3.00;;
13855;SDS011;6998;53.608;9.958;2023-07-20T02:55:01;2.90;;;2.70;;
13855;SDS011;6998;53.608;9.958;2023-07-20T02:57:29;2.80;;;2.60;;
13855;SDS011;6998;53.608;9.958;2023-07-20T02:59:56;3.00;;;2.72;;
13855;SDS011;6998;53.608;9.958;2023-07-20T03:02:23;2.60;;;2.40;;
13855;SDS011;6998;53.608;9.958;2023-07-20T03:04:50;2.97;;;2.75;;
13855;SDS011;6998;53.608;9.958;2023-07-20T03:07:16;3.80;;;2.40;;
13855;SDS011;6998;53.608;9.958;2023-07-20T03:09:43;2.70;;;2.50;;
13855;SDS011;6998;53.608;9.958;2023-07-20T03:12:10;4.10;;;3.20;;
13855;SDS011;6998;53.608;9.958;2023-07-20T03:14:38;5.00;;;3.08;;
13855;SDS011;6998;53.608;9.958;2023-07-20T03:17:05;2.92;;;2.72;;
13855;SDS011;6998;53.608;9.958;2023-07-20T03:19:32;2.70;;;2.50;;
13855;SDS011;6998;53.608;9.958;2023-07-20T03:21:59;3.75;;;2.83;;
13855;SDS011;6998;53.608;9.958;2023-07-20T03:24:25;3.20;;;2.90;;
13855;SDS011;6998;53.608;9.958;2023-07-20T03:26:52;3.25;;;2.83;;
13855;SDS011;6998;53.608;9.958;2023-07-20T03:29:19;3.33;;;2.75;;
13855;SDS011;6998;53.608;9.958;2023-07-20T03:31:47;2.85;;;2.55;;
13855;SDS011;6998;53.608;9.958;2023-07-20T03:34:14;3.20;;;2.80;;
13855;SDS011;6998;53.608;9.958;2023-07-20T03:36:40;3.13;;;2.55;;
13855;SDS011;6998;53.608;9.958;2023-07-20T03:39:07;3.00;;;2.53;;
13855;SDS011;6998;53.608;9.958;2023-07-20T03:41:34;3.08;;;2.78;;
13855;SDS011;6998;53.608;9.958;2023-07-20T03:44:02;2.63;;;2.42;;
13855;SDS011;6998;53.608;9.958;2023-07-20T03:46:29;2.25;;;1.98;;
13855;SDS011;6998;53.608;9.958;2023-07-20T03:48:57;2.58;;;2.38;;
13855;SDS011;6998;53.608;9.958;2023-07-20T03:51:24;2.30;;;2.10;;
13855;SDS011;6998;53.608;9.958;2023-07-20T03:53:50;2.70;;;2.50;;
13855;SDS011;6998;53.608;9.958;2023-07-20T03:56:17;2.55;;;2.35;;
13855;SDS011;6998;53.608;9.958;2023-07-20T03:58:44;2.58;;;2.25;;
13855;SDS011;6998;53.608;9.958;2023-07-20T04:01:10;2.45;;;2.25;;
13855;SDS011;6998;53.608;9.958;2023-07-20T04:03:38;2.63;;;2.42;;
13855;SDS011;6998;53.608;9.958;2023-07-20T04:06:06;3.90;;;2.58;;
13855;SDS011;6998;53.608;9.958;2023-07-20T04:08:33;3.40;;;2.67;;
13855;SDS011;6998;53.608;9.958;2023-07-20T04:11:00;3.38;;;2.90;;
13855;SDS011;6998;53.608;9.958;2023-07-20T04:13:27;2.88;;;2.58;;
13855;SDS011;6998;53.608;9.958;2023-07-20T04:15:58;3.97;;;2.53;;
13855;SDS011;6998;53.608;9.958;2023-07-20T04:18:25;3.47;;;2.47;;
13855;SDS011;6998;53.608;9.958;2023-07-20T04:20:51;3.95;;;2.80;;
13855;SDS011;6998;53.608;9.958;2023-07-20T04:23:19;3.25;;;2.45;;
13855;SDS011;6998;53.608;9.958;2023-07-20T04:25:46;2.72;;;2.53;;
13855;SDS011;6998;53.608;9.958;2023-07-20T04:28:13;2.60;;;2.40;;
13855;SDS011;6998;53.608;9.958;2023-07-20T04:30:39;3.17;;;2.42;;
13855;SDS011;6998;53.608;9.958;2023-07-20T04:33:06;4.85;;;2.75;;
13855;SDS011;6998;53.608;9.958;2023-07-20T04:35:46;2.97;;;2.53;;
13855;SDS011;6998;53.608;9.958;2023-07-20T04:38:14;5.13;;;2.72;;
13855;SDS011;6998;53.608;9.958;2023-07-20T04:40:43;3.58;;;2.55;;
13855;SDS011;6998;53.608;9.958;2023-07-20T04:43:10;2.50;;;2.30;;
13855;SDS011;6998;53.608;9.958;2023-07-20T04:45:37;3.35;;;2.58;;
13855;SDS011;6998;53.608;9.958;2023-07-20T04:48:06;2.67;;;2.25;;
13855;SDS011;6998;53.608;9.958;2023-07-20T04:50:35;2.70;;;2.13;;
13855;SDS011;6998;53.608;9.958;2023-07-20T04:53:02;2.20;;;2.00;;
13855;SDS011;6998;53.608;9.958;2023-07-20T04:55:29;2.22;;;2.00;;
13855;SDS011;6998;53.608;9.958;2023-07-20T04:57:57;2.83;;;2.13;;
13855;SDS011;6998;53.608;9.958;2023-07-20T05:00:23;2.58;;;2.38;;
13855;SDS011;6998;53.608;9.958;2023-07-20T05:02:50;2.80;;;1.80;;
13855;SDS011;6998;53.608;9.958;2023-07-20T05:05:17;2.92;;;2.35;;
13855;SDS011;6998;53.608;9.958;2023-07-20T05:07:43;2.45;;;2.25;;
13855;SDS011;6998;53.608;9.958;2023-07-20T05:10:11;4.28;;;2.20;;
13855;SDS011;6998;53.608;9.958;2023-07-20T05:12:38;4.57;;;2.20;;
13855;SDS011;6998;53.608;9.958;2023-07-20T05:15:06;3.08;;;2.78;;
13855;SDS011;6998;53.608;9.958;2023-07-20T05:17:33;3.28;;;2.70;;
13855;SDS011;6998;53.608;9.958;2023-07-20T05:20:00;2.67;;;2.40;;
13855;SDS011;6998;53.608;9.958;2023-07-20T05:22:27;3.65;;;2.60;;
13855;SDS011;6998;53.608;9.958;2023-07-20T05:24:53;2.88;;;2.67;;
13855;SDS011;6998;53.608;9.958;2023-07-20T05:27:20;3.35;;;2.50;;
13855;SDS011;6998;53.608;9.958;2023-07-20T05:29:47;2.55;;;2.33;;
13855;SDS011;6998;53.608;9.958;2023-07-20T05:32:15;3.05;;;2.60;;
13855;SDS011;6998;53.608;9.958;2023-07-20T05:34:42;2.63;;;2.42;;
13855;SDS011;6998;53.608;9.958;2023-07-20T05:37:08;3.13;;;2.33;;
13855;SDS011;6998;53.608;9.958;2023-07-20T05:39:35;3.55;;;2.72;;
13855;SDS011;6998;53.608;9.958;2023-07-20T05:42:02;3.83;;;2.38;;
13855;SDS011;6998;53.608;9.958;2023-07-20T05:44:28;4.13;;;2.63;;
13855;SDS011;6998;53.608;9.958;2023-07-20T05:46:55;2.97;;;2.63;;
13855;SDS011;6998;53.608;9.958;2023-07-20T05:49:23;5.90;;;2.72;;
13855;SDS011;6998;53.608;9.958;2023-07-20T05:51:50;3.65;;;2.60;;
13855;SDS011;6998;53.608;9.958;2023-07-20T05:54:17;4.35;;;2.40;;
13855;SDS011;6998;53.608;9.958;2023-07-20T05:56:45;4.03;;;2.33;;
13855;SDS011;6998;53.608;9.958;2023-07-20T05:59:11;3.10;;;2.47;;
13855;SDS011;6998;53.608;9.958;2023-07-20T06:01:38;3.70;;;2.05;;
13855;SDS011;6998;53.608;9.958;2023-07-20T06:04:05;4.68;;;2.10;;
13855;SDS011;6998;53.608;9.958;2023-07-20T06:06:33;4.93;;;2.45;;
13855;SDS011;6998;53.608;9.958;2023-07-20T06:09:00;3.65;;;1.90;;
13855;SDS011;6998;53.608;9.958;2023-07-20T06:11:28;4.45;;;1.73;;
13855;SDS011;6998;53.608;9.958;2023-07-20T06:13:55;2.70;;;1.50;;
13855;SDS011;6998;53.608;9.958;2023-07-20T06:16:22;2.92;;;1.73;;
13855;SDS011;6998;53.608;9.958;2023-07-20T06:18:48;3.45;;;1.90;;
13855;SDS011;6998;53.608;9.958;2023-07-20T06:21:15;3.30;;;1.85;;
13855;SDS011;6998;53.608;9.958;2023-07-20T06:23:43;3.03;;;1.60;;
13855;SDS011;6998;53.608;9.958;2023-07-20T06:26:11;2.45;;;1.70;;
13855;SDS011;6998;53.608;9.958;2023-07-20T06:28:38;3.83;;;1.80;;
13855;SDS011;6998;53.608;9.958;2023-07-20T06:31:04;3.70;;;1.40;;
13855;SDS011;6998;53.608;9.958;2023-07-20T06:33:31;1.48;;;1.20;;
13855;SDS011;6998;53.608;9.958;2023-07-20T06:35:59;4.35;;;1.63;;
13855;SDS011;6998;53.608;9.958;2023-07-20T06:38:26;3.72;;;1.40;;
13855;SDS011;6998;53.608;9.958;2023-07-20T06:40:55;2.17;;;1.38;;
13855;SDS011;6998;53.608;9.958;2023-07-20T06:43:22;3.67;;;1.48;;
13855;SDS011;6998;53.608;9.958;2023-07-20T06:45:51;3.67;;;1.65;;
13855;SDS011;6998;53.608;9.958;2023-07-20T06:48:18;2.50;;;1.50;;
13855;SDS011;6998;53.608;9.958;2023-07-20T06:50:45;4.40;;;1.52;;
13855;SDS011;6998;53.608;9.958;2023-07-20T06:53:12;2.00;;;1.23;;
13855;SDS011;6998;53.608;9.958;2023-07-20T06:55:39;5.63;;;1.35;;
13855;SDS011;6998;53.608;9.958;2023-07-20T06:58:09;5.78;;;1.48;;
13855;SDS011;6998;53.608;9.958;2023-07-20T07:00:35;1.98;;;1.48;;
13855;SDS011;6998;53.608;9.958;2023-07-20T07:03:02;3.80;;;1.42;;
13855;SDS011;6998;53.608;9.958;2023-07-20T07:05:29;3.70;;;1.77;;
13855;SDS011;6998;53.608;9.958;2023-07-20T07:07:56;4.20;;;1.63;;
13855;SDS011;6998;53.608;9.958;2023-07-20T07:10:22;2.35;;;1.50;;
13855;SDS011;6998;53.608;9.958;2023-07-20T07:12:49;3.08;;;1.80;;
13855;SDS011;6998;53.608;9.958;2023-07-20T07:15:17;3.15;;;1.45;;
13855;SDS011;6998;53.608;9.958;2023-07-20T07:17:44;4.28;;;1.42;;
13855;SDS011;6998;53.608;9.958;2023-07-20T07:20:11;4.28;;;1.98;;
13855;SDS011;6998;53.608;9.958;2023-07-20T07:22:38;3.47;;;1.48;;
13855;SDS011;6998;53.608;9.958;2023-07-20T07:25:05;4.15;;;1.67;;
13855;SDS011;6998;53.608;9.958;2023-07-20T07:27:32;3.50;;;1.35;;
13855;SDS011;6998;53.608;9.958;2023-07-20T07:29:59;2.33;;;1.25;;
13855;SDS011;6998;53.608;9.958;2023-07-20T07:32:27;1.70;;;1.35;;
13855;SDS011;6998;53.608;9.958;2023-07-20T07:34:54;7.47;;;1.92;;
13855;SDS011;6998;53.608;9.958;2023-07-20T07:37:23;3.60;;;1.27;;
13855;SDS011;6998;53.608;9.958;2023-07-20T07:39:50;3.75;;;1.90;;
13855;SDS011;6998;53.608;9.958;2023-07-20T07:42:16;4.40;;;1.58;;
13855;SDS011;6998;53.608;9.958;2023-07-20T07:44:44;2.63;;;1.58;;
13855;SDS011;6998;53.608;9.958;2023-07-20T07:47:10;5.55;;;2.15;;
13855;SDS011;6998;53.608;9.958;2023-07-20T07:49:38;4.90;;;2.10;;
13855;SDS011;6998;53.608;9.958;2023-07-20T07:52:06;4.72;;;2.40;;
13855;SDS011;6998;53.608;9.958;2023-07-20T07:54:33;4.90;;;2.20;;
13855;SDS011;6998;53.608;9.958;2023-07-20T07:57:00;4.63;;;2.25;;
13855;SDS011;6998;53.608;9.958;2023-07-20T07:59:27;5.25;;;2.33;;
13855;SDS011;6998;53.608;9.958;2023-07-20T08:01:54;8.48;;;2.58;;
13855;SDS011;6998;53.608;9.958;2023-07-20T08:04:21;3.78;;;2.33;;
13855;SDS011;6998;53.608;9.958;2023-07-20T08:06:49;4.13;;;2.50;;
13855;SDS011;6998;53.608;9.958;2023-07-20T08:09:16;6.45;;;2.70;;
13855;SDS011;6998;53.608;9.958;2023-07-20T08:11:45;4.55;;;2.00;;
13855;SDS011;6998;53.608;9.958;2023-07-20T08:14:13;4.22;;;2.30;;
13855;SDS011;6998;53.608;9.958;2023-07-20T08:16:40;8.00;;;2.72;;
13855;SDS011;6998;53.608;9.958;2023-07-20T08:19:07;4.00;;;2.35;;
13855;SDS011;6998;53.608;9.958;2023-07-20T08:21:34;4.35;;;2.13;;
13855;SDS011;6998;53.608;9.958;2023-07-20T08:24:03;4.00;;;2.20;;
13855;SDS011;6998;53.608;9.958;2023-07-20T08:26:30;5.90;;;2.50;;
13855;SDS011;6998;53.608;9.958;2023-07-20T08:28:56;7.05;;;2.22;;
13855;SDS011;6998;53.608;9.958;2023-07-20T08:31:23;6.93;;;2.08;;
13855;SDS011;6998;53.608;9.958;2023-07-20T08:33:50;4.53;;;2.10;;
13855;SDS011;6998;53.608;9.958;2023-07-20T08:36:16;4.55;;;2.13;;
13855;SDS011;6998;53.608;9.958;2023-07-20T08:38:43;4.88;;;2.03;;
13855;SDS011;6998;53.608;9.958;2023-07-20T08:41:11;7.80;;;2.60;;
13855;SDS011;6998;53.608;9.958;2023-07-20T08:43:38;5.80;;;1.95;;
13855;SDS011;6998;53.608;9.958;2023-07-20T08:46:08;5.40;;;2.03;;
13855;SDS011;6998;53.608;9.958;2023-07-20T08:48:38;5.47;;;2.35;;
13855;SDS011;6998;53.608;9.958;2023-07-20T08:51:06;4.45;;;2.15;;
13855;SDS011;6998;53.608;9.958;2023-07-20T08:53:33;4.45;;;2.40;;
13855;SDS011;6998;53.608;9.958;2023-07-20T08:56:00;5.65;;;2.80;;
13855;SDS011;6998;53.608;9.958;2023-07-20T08:58:29;4.38;;;2.28;;
13855;SDS011;6998;53.608;9.958;2023-07-20T09:00:57;5.60;;;2.65;;
13855;SDS011;6998;53.608;9.958;2023-07-20T09:03:25;6.22;;;2.75;;
13855;SDS011;6998;53.608;9.958;2023-07-20T09:05:52;7.00;;;2.72;;
13855;SDS011;6998;53.608;9.958;2023-07-20T09:08:20;3.97;;;2.20;;
13855;SDS011;6998;53.608;9.958;2023-07-20T09:10:47;5.53;;;2.33;;
13855;SDS011;6998;53.608;9.958;2023-07-20T09:13:14;7.93;;;2.40;;
13855;SDS011;6998;53.608;9.958;2023-07-20T09:15:46;7.50;;;2.13;;
13855;SDS011;6998;53.608;9.958;2023-07-20T09:18:22;5.05;;;2.22;;
13855;SDS011;6998;53.608;9.958;2023-07-20T09:20:50;7.35;;;1.60;;
13855;SDS011;6998;53.608;9.958;2023-07-20T09:23:17;7.43;;;2.17;;
13855;SDS011;6998;53.608;9.958;2023-07-20T09:25:43;3.35;;;1.35;;
13855;SDS011;6998;53.608;9.958;2023-07-20T09:28:11;5.85;;;1.77;;
13855;SDS011;6998;53.608;9.958;2023-07-20T09:30:37;4.72;;;1.48;;
13855;SDS011;6998;53.608;9.958;2023-07-20T09:33:05;3.00;;;1.38;;
13855;SDS011;6998;53.608;9.958;2023-07-20T09:35:44;6.47;;;1.60;;
13855;SDS011;6998;53.608;9.958;2023-07-20T09:38:10;3.33;;;1.45;;
13855;SDS011;6998;53.608;9.958;2023-07-20T09:40:37;4.45;;;1.70;;
13855;SDS011;6998;53.608;9.958;2023-07-20T09:43:07;3.65;;;1.40;;
13855;SDS011;6998;53.608;9.958;2023-07-20T09:45:34;4.93;;;1.80;;
13855;SDS011;6998;53.608;9.958;2023-07-20T09:48:07;4.25;;;1.30;;
13855;SDS011;6998;53.608;9.958;2023-07-20T09:50:38;3.08;;;1.15;;
13855;SDS011;6998;53.608;9.958;2023-07-20T09:53:07;3.85;;;1.33;;
13855;SDS011;6998;53.608;9.958;2023-07-20T09:55:38;3.38;;;1.00;;
13855;SDS011;6998;53.608;9.958;2023-07-20T09:58:06;3.08;;;1.30;;
13855;SDS011;6998;53.608;9.958;2023-07-20T10:00:35;2.38;;;1.08;;
13855;SDS011;6998;53.608;9.958;2023-07-20T10:03:05;2.55;;;1.10;;
13855;SDS011;6998;53.608;9.958;2023-07-20T10:05:33;5.85;;;1.33;;
13855;SDS011;6998;53.608;9.958;2023-07-20T10:08:02;3.67;;;1.58;;
13855;SDS011;6998;53.608;9.958;2023-07-20T10:10:31;3.75;;;1.20;;
13855;SDS011;6998;53.608;9.958;2023-07-20T10:13:00;3.15;;;1.30;;
13855;SDS011;6998;53.608;9.958;2023-07-20T10:15:29;4.97;;;1.30;;
13855;SDS011;6998;53.608;9.958;2023-07-20T10:18:02;2.17;;;1.00;;
13855;SDS011;6998;53.608;9.958;2023-07-20T10:20:35;3.20;;;1.00;;
13855;SDS011;6998;53.608;9.958;2023-07-20T10:23:05;2.55;;;1.13;;
13855;SDS011;6998;53.608;9.958;2023-07-20T10:25:33;1.50;;;1.00;;
13855;SDS011;6998;53.608;9.958;2023-07-20T10:28:02;3.60;;;1.20;;
13855;SDS011;6998;53.608;9.958;2023-07-20T10:30:30;4.30;;;1.63;;
13855;SDS011;6998;53.608;9.958;2023-07-20T10:32:57;3.47;;;0.80;;
13855;SDS011;6998;53.608;9.958;2023-07-20T10:35:27;1.85;;;0.90;;
13855;SDS011;6998;53.608;9.958;2023-07-20T10:37:59;3.60;;;0.98;;
13855;SDS011;6998;53.608;9.958;2023-07-20T10:40:27;1.52;;;0.80;;
13855;SDS011;6998;53.608;9.958;2023-07-20T10:42:59;3.30;;;1.10;;
13855;SDS011;6998;53.608;9.958;2023-07-20T10:45:34;3.67;;;0.98;;
13855;SDS011;6998;53.608;9.958;2023-07-20T10:48:05;3.17;;;1.05;;
13855;SDS011;6998;53.608;9.958;2023-07-20T10:50:38;3.13;;;1.23;;
13855;SDS011;6998;53.608;9.958;2023-07-20T10:53:14;2.15;;;1.10;;
13855;SDS011;6998;53.608;9.958;2023-07-20T10:55:43;3.15;;;1.02;;
13855;SDS011;6998;53.608;9.958;2023-07-20T10:58:11;2.00;;;1.13;;
13855;SDS011;6998;53.608;9.958;2023-07-20T11:00:58;3.05;;;1.00;;
13855;SDS011;6998;53.608;9.958;2023-07-20T11:03:27;2.90;;;1.00;;
13855;SDS011;6998;53.608;9.958;2023-07-20T11:05:55;4.18;;;1.20;;
13855;SDS011;6998;53.608;9.958;2023-07-20T11:11:23;4.10;;;0.90;;
13855;SDS011;6998;53.608;9.958;2023-07-20T11:13:54;3.33;;;1.00;;
13855;SDS011;6998;53.608;9.958;2023-07-20T11:16:35;4.32;;;1.08;;
13855;SDS011;6998;53.608;9.958;2023-07-20T11:19:04;3.17;;;1.02;;
13855;SDS011;6998;53.608;9.958;2023-07-20T11:21:35;3.17;;;1.17;;
13855;SDS011;6998;53.608;9.958;2023-07-20T11:24:05;2.22;;;0.85;;
13855;SDS011;6998;53.608;9.958;2023-07-20T11:26:42;2.63;;;0.80;;
13855;SDS011;6998;53.608;9.958;2023-07-20T11:29:10;3.28;;;0.80;;
13855;SDS011;6998;53.608;9.958;2023-07-20T11:31:37;1.58;;;0.90;;
13855;SDS011;6998;53.608;9.958;2023-07-20T11:34:04;1.65;;;0.60;;
13855;SDS011;6998;53.608;9.958;2023-07-20T11:36:31;1.40;;;0.68;;
13855;SDS011;6998;53.608;9.958;2023-07-20T11:38:59;2.63;;;0.70;;
13855;SDS011;6998;53.608;9.958;2023-07-20T11:41:29;1.63;;;0.80;;
13855;SDS011;6998;53.608;9.958;2023-07-20T11:43:56;1.55;;;0.70;;
13855;SDS011;6998;53.608;9.958;2023-07-20T11:46:23;1.52;;;0.70;;
13855;SDS011;6998;53.608;9.958;2023-07-20T11:48:55;1.17;;;0.75;;
13855;SDS011;6998;53.608;9.958;2023-07-20T11:51:22;2.17;;;0.80;;
13855;SDS011;6998;53.608;9.958;2023-07-20T11:53:50;3.85;;;1.00;;
13855;SDS011;6998;53.608;9.958;2023-07-20T11:56:16;3.13;;;0.80;;
13855;SDS011;6998;53.608;9.958;2023-07-20T11:58:45;3.08;;;1.00;;
13855;SDS011;6998;53.608;9.958;2023-07-20T12:01:12;3.75;;;0.98;;
13855;SDS011;6998;53.608;9.958;2023-07-20T12:03:39;1.42;;;0.73;;
13855;SDS011;6998;53.608;9.958;2023-07-20T12:06:08;3.13;;;1.10;;
13855;SDS011;6998;53.608;9.958;2023-07-20T12:08:37;2.60;;;1.00;;
13855;SDS011;6998;53.608;9.958;2023-07-20T12:11:05;3.10;;;1.00;;
13855;SDS011;6998;53.608;9.958;2023-07-20T12:13:35;3.63;;;1.08;;
13855;SDS011;6998;53.608;9.958;2023-07-20T12:16:08;2.88;;;0.98;;
13855;SDS011;6998;53.608;9.958;2023-07-20T12:18:36;3.08;;;1.10;;
13855;SDS011;6998;53.608;9.958;2023-07-20T12:21:03;2.70;;;1.17;;
13855;SDS011;6998;53.608;9.958;2023-07-20T12:23:34;3.15;;;1.20;;
13855;SDS011;6998;53.608;9.958;2023-07-20T12:26:03;3.20;;;1.00;;
13855;SDS011;6998;53.608;9.958;2023-07-20T12:28:32;2.47;;;1.30;;
13855;SDS011;6998;53.608;9.958;2023-07-20T12:30:59;4.72;;;1.10;;
13855;SDS011;6998;53.608;9.958;2023-07-20T12:33:27;1.83;;;1.00;;
13855;SDS011;6998;53.608;9.958;2023-07-20T12:35:54;2.28;;;0.90;;
13855;SDS011;6998;53.608;9.958;2023-07-20T12:38:23;2.92;;;1.20;;
13855;SDS011;6998;53.608;9.958;2023-07-20T12:40:50;3.70;;;1.20;;
13855;SDS011;6998;53.608;9.958;2023-07-20T12:43:17;5.38;;;1.60;;
13855;SDS011;6998;53.608;9.958;2023-07-20T12:45:44;3.33;;;1.50;;
13855;SDS011;6998;53.608;9.958;2023-07-20T12:48:11;3.47;;;1.20;;
13855;SDS011;6998;53.608;9.958;2023-07-20T12:50:39;5.47;;;1.40;;
13855;SDS011;6998;53.608;9.958;2023-07-20T12:53:06;5.25;;;1.30;;
13855;SDS011;6998;53.608;9.958;2023-07-20T12:55:32;4.32;;;1.10;;
13855;SDS011;6998;53.608;9.958;2023-07-20T12:57:59;3.03;;;1.00;;
13855;SDS011;6998;53.608;9.958;2023-07-20T13:00:26;3.05;;;0.80;;
13855;SDS011;6998;53.608;9.958;2023-07-20T13:02:53;2.13;;;0.80;;
13855;SDS011;6998;53.608;9.958;2023-07-20T13:05:19;2.38;;;0.68;;
13855;SDS011;6998;53.608;9.958;2023-07-20T13:07:48;2.67;;;0.70;;
13855;SDS011;6998;53.608;9.958;2023-07-20T13:10:14;1.70;;;0.63;;
13855;SDS011;6998;53.608;9.958;2023-07-20T13:12:42;1.30;;;0.70;;
13855;SDS011;6998;53.608;9.958;2023-07-20T13:15:09;3.60;;;1.25;;
13855;SDS011;6998;53.608;9.958;2023-07-20T13:17:37;1.67;;;0.85;;
13855;SDS011;6998;53.608;9.958;2023-07-20T13:20:05;2.35;;;0.80;;
13855;SDS011;6998;53.608;9.958;2023-07-20T13:22:35;2.42;;;0.85;;
13855;SDS011;6998;53.608;9.958;2023-07-20T13:25:04;2.72;;;0.93;;
13855;SDS011;6998;53.608;9.958;2023-07-20T13:27:31;2.15;;;0.80;;
13855;SDS011;6998;53.608;9.958;2023-07-20T13:29:58;2.33;;;0.90;;
13855;SDS011;6998;53.608;9.958;2023-07-20T13:32:25;1.90;;;0.70;;
13855;SDS011;6998;53.608;9.958;2023-07-20T13:34:53;2.55;;;1.00;;
13855;SDS011;6998;53.608;9.958;2023-07-20T13:37:20;3.15;;;1.08;;
13855;SDS011;6998;53.608;9.958;2023-07-20T13:39:46;2.78;;;1.20;;
13855;SDS011;6998;53.608;9.958;2023-07-20T13:42:14;2.25;;;1.02;;
13855;SDS011;6998;53.608;9.958;2023-07-20T13:44:42;3.35;;;0.93;;
13855;SDS011;6998;53.608;9.958;2023-07-20T13:47:09;1.85;;;0.85;;
13855;SDS011;6998;53.608;9.958;2023-07-20T13:49:36;3.10;;;0.73;;
13855;SDS011;6998;53.608;9.958;2023-07-20T13:52:03;1.58;;;0.75;;
13855;SDS011;6998;53.608;9.958;2023-07-20T13:54:30;1.80;;;0.85;;
13855;SDS011;6998;53.608;9.958;2023-07-20T13:56:57;1.95;;;0.70;;
13855;SDS011;6998;53.608;9.958;2023-07-20T13:59:25;1.48;;;0.82;;
13855;SDS011;6998;53.608;9.958;2023-07-20T14:01:52;1.63;;;0.70;;
13855;SDS011;6998;53.608;9.958;2023-07-20T14:04:19;1.17;;;0.70;;
13855;SDS011;6998;53.608;9.958;2023-07-20T14:06:45;1.63;;;0.82;;
13855;SDS011;6998;53.608;9.958;2023-07-20T14:09:12;2.55;;;0.90;;
13855;SDS011;6998;53.608;9.958;2023-07-20T14:11:39;2.13;;;1.00;;
13855;SDS011;6998;53.608;9.958;2023-07-20T14:14:06;2.00;;;1.00;;
13855;SDS011;6998;53.608;9.958;2023-07-20T14:16:34;2.20;;;0.98;;
13855;SDS011;6998;53.608;9.958;2023-07-20T14:19:01;2.60;;;0.90;;
13855;SDS011;6998;53.608;9.958;2023-07-20T14:21:29;2.25;;;0.93;;
13855;SDS011;6998;53.608;9.958;2023-07-20T14:23:57;5.63;;;1.63;;
13855;SDS011;6998;53.608;9.958;2023-07-20T14:26:23;1.85;;;0.80;;
13855;SDS011;6998;53.608;9.958;2023-07-20T14:28:50;1.83;;;0.82;;
13855;SDS011;6998;53.608;9.958;2023-07-20T14:31:17;3.10;;;1.08;;
13855;SDS011;6998;53.608;9.958;2023-07-20T14:33:46;2.05;;;0.98;;
13855;SDS011;6998;53.608;9.958;2023-07-20T14:36:12;1.00;;;0.77;;
13855;SDS011;6998;53.608;9.958;2023-07-20T14:38:39;2.67;;;0.90;;
13855;SDS011;6998;53.608;9.958;2023-07-20T14:41:06;3.25;;;0.80;;
13855;SDS011;6998;53.608;9.958;2023-07-20T14:43:33;2.42;;;1.27;;
13855;SDS011;6998;53.608;9.958;2023-07-20T14:46:00;1.77;;;0.80;;
13855;SDS011;6998;53.608;9.958;2023-07-20T14:48:26;3.50;;;1.05;;
13855;SDS011;6998;53.608;9.958;2023-07-20T14:50:54;3.88;;;1.20;;
13855;SDS011;6998;53.608;9.958;2023-07-20T14:53:21;2.22;;;1.08;;
13855;SDS011;6998;53.608;9.958;2023-07-20T14:55:48;2.95;;;0.90;;
13855;SDS011;6998;53.608;9.958;2023-07-20T14:58:15;2.10;;;0.85;;
13855;SDS011;6998;53.608;9.958;2023-07-20T15:00:41;2.17;;;1.33;;
13855;SDS011;6998;53.608;9.958;2023-07-20T15:03:08;2.65;;;1.10;;
13855;SDS011;6998;53.608;9.958;2023-07-20T15:05:35;3.33;;;1.17;;
13855;SDS011;6998;53.608;9.958;2023-07-20T15:08:04;4.25;;;1.60;;